Time;durP1;ratioP1;P1;durP2;ratioP2;P2;SDS_P1;SDS_P2;PMS_P1;PMS_P2;Temp;Humidity;BMP_temperature;BMP_pressure;BME280_temperature;BME280_humidity;BME280_pressure;Samples;Min_cycle;Max_cycle;Signal;HPM_P1;HPM_P2
2022/04/20 00:00:15;;;;;;;2.85;1.80;;;;;;;;;;5024621;28;20224;-66
2022/04/20 00:02:41;;;;;;;2.08;1.42;;;;;;;;;;5026430;28;20170;-65
2022/04/20 00:05:06;;;;;;;3.95;2.05;;;;;;;;;;5025922;28;20656;-65
2022/04/20 00:07:33;;;;;;;3.00;1.67;;;;;;;;;;5028445;28;20221;-65
2022/04/20 00:09:59;;;;;;;4.10;1.70;;;;;;;;;;5020172;28;20178;-65
2022/04/20 00:12:25;;;;;;;3.35;1.65;;;;;;;;;;5025262;28;20349;-66
2022/04/20 00:14:50;;;;;;;4.63;2.00;;;;;;;;;;5029146;28;20599;-66
2022/04/20 00:17:15;;;;;;;3.55;1.70;;;;;;;;;;5025532;28;20256;-66
2022/04/20 00:19:41;;;;;;;3.40;1.85;;;;;;;;;;5014107;28;20245;-65
2022/04/20 00:22:06;;;;;;;3.30;1.85;;;;;;;;;;5022011;28;20182;-66
2022/04/20 00:24:31;;;;;;;3.53;1.98;;;;;;;;;;5021446;28;20188;-66
2022/04/20 00:26:57;;;;;;;2.42;1.88;;;;;;;;;;5024524;28;20206;-66
2022/04/20 00:29:22;;;;;;;3.88;1.83;;;;;;;;;;5028986;28;20182;-66
2022/04/20 00:31:47;;;;;;;3.63;1.83;;;;;;;;;;5024784;28;20198;-66
2022/04/20 00:34:13;;;;;;;4.05;2.08;;;;;;;;;;5024803;28;20243;-66
2022/04/20 00:36:38;;;;;;;4.07;1.60;;;;;;;;;;5026010;28;20665;-66
2022/04/20 00:39:04;;;;;;;3.47;2.08;;;;;;;;;;5020620;28;20491;-65
2022/04/20 00:41:30;;;;;;;3.15;2.10;;;;;;;;;;5016187;28;20265;-66
2022/04/20 00:43:55;;;;;;;3.28;2.00;;;;;;;;;;5025063;28;20462;-66
2022/04/20 00:46:23;;;;;;;3.93;2.13;;;;;;;;;;5028198;28;20209;-66
2022/04/20 00:48:51;;;;;;;7.32;2.53;;;;;;;;;;5021730;28;20178;-66
2022/04/20 00:51:16;;;;;;;5.55;1.98;;;;;;;;;;5023452;28;20271;-66
2022/04/20 00:53:41;;;;;;;5.05;2.17;;;;;;;;;;5021982;28;20234;-66
2022/04/20 00:56:07;;;;;;;3.63;1.77;;;;;;;;;;5021586;28;20197;-65
2022/04/20 00:58:35;;;;;;;4.55;1.92;;;;;;;;;;5017847;28;20193;-65
2022/04/20 01:01:01;;;;;;;5.78;2.40;;;;;;;;;;5026716;28;20560;-65
2022/04/20 01:03:27;;;;;;;5.50;2.10;;;;;;;;;;5025210;28;20194;-66
2022/04/20 01:05:52;;;;;;;5.65;1.77;;;;;;;;;;5018578;28;20194;-66
2022/04/20 01:08:18;;;;;;;3.05;2.08;;;;;;;;;;5026966;28;20256;-66
2022/04/20 01:10:43;;;;;;;6.50;2.30;;;;;;;;;;5009103;28;20191;-66
2022/04/20 01:13:09;;;;;;;2.67;1.90;;;;;;;;;;5018009;28;20233;-66
2022/04/20 01:15:35;;;;;;;4.65;2.15;;;;;;;;;;5028327;28;20188;-65
2022/04/20 01:18:12;;;;;;;4.00;2.17;;;;;;;;;;5025948;28;20323;-66
2022/04/20 01:20:38;;;;;;;4.45;2.08;;;;;;;;;;5011802;28;20681;-66
2022/04/20 01:23:03;;;;;;;3.25;2.10;;;;;;;;;;5024873;28;20264;-65
2022/04/20 01:25:28;;;;;;;4.20;2.03;;;;;;;;;;5028514;28;20676;-65
2022/04/20 01:27:54;;;;;;;3.27;1.97;;;;;;;;;;5027053;28;20206;-65
2022/04/20 01:30:19;;;;;;;4.97;1.65;;;;;;;;;;5028925;28;20210;-65
2022/04/20 01:32:45;;;;;;;3.00;2.00;;;;;;;;;;5014732;28;20182;-65
2022/04/20 01:35:10;;;;;;;3.78;1.88;;;;;;;;;;5028430;28;20250;-65
2022/04/20 01:37:35;;;;;;;3.47;1.87;;;;;;;;;;5022148;28;20312;-65
2022/04/20 01:40:01;;;;;;;5.43;2.33;;;;;;;;;;5026774;28;20205;-66
2022/04/20 01:42:26;;;;;;;3.53;2.30;;;;;;;;;;5018885;28;20189;-65
2022/04/20 01:44:51;;;;;;;2.47;1.80;;;;;;;;;;5019725;28;20192;-65
2022/04/20 01:47:17;;;;;;;4.82;2.33;;;;;;;;;;5014696;28;20201;-65
2022/04/20 01:49:42;;;;;;;4.53;2.33;;;;;;;;;;5020262;28;20189;-65
2022/04/20 01:52:08;;;;;;;2.80;1.93;;;;;;;;;;5018823;28;20710;-65
2022/04/20 01:54:33;;;;;;;3.63;2.40;;;;;;;;;;5018408;28;20189;-65
2022/04/20 01:56:58;;;;;;;6.10;2.10;;;;;;;;;;5023544;28;20546;-65
2022/04/20 01:59:24;;;;;;;3.27;1.90;;;;;;;;;;5017983;28;20672;-65
2022/04/20 02:04:34;;;;;;;4.77;2.20;;;;;;;;;;5020241;28;20198;-66
2022/04/20 02:06:59;;;;;;;7.50;2.20;;;;;;;;;;5024451;28;20233;-65
2022/04/20 02:09:25;;;;;;;6.75;2.38;;;;;;;;;;5026806;28;20267;-65
2022/04/20 02:11:51;;;;;;;5.70;2.07;;;;;;;;;;5019171;28;20449;-65
2022/04/20 02:14:16;;;;;;;4.30;2.20;;;;;;;;;;5026630;28;20424;-65
2022/04/20 02:16:41;;;;;;;5.57;2.10;;;;;;;;;;5017541;28;20187;-65
2022/04/20 02:19:07;;;;;;;5.57;2.57;;;;;;;;;;5027379;28;20177;-65
2022/04/20 02:21:32;;;;;;;4.07;2.27;;;;;;;;;;5019375;28;20265;-65
2022/04/20 02:23:57;;;;;;;9.03;2.50;;;;;;;;;;5022528;28;20221;-65
2022/04/20 02:26:23;;;;;;;6.50;2.47;;;;;;;;;;5032501;28;20198;-65
2022/04/20 02:28:48;;;;;;;4.17;2.13;;;;;;;;;;5019518;28;20429;-65
2022/04/20 02:31:14;;;;;;;6.47;2.47;;;;;;;;;;5023549;28;20553;-65
2022/04/20 02:33:40;;;;;;;4.13;2.30;;;;;;;;;;5029329;28;20217;-65
2022/04/20 02:36:06;;;;;;;4.07;2.17;;;;;;;;;;5026011;28;20236;-65
2022/04/20 02:38:31;;;;;;;5.47;2.10;;;;;;;;;;5024254;28;20192;-65
2022/04/20 02:40:57;;;;;;;4.27;2.43;;;;;;;;;;5022708;28;20556;-65
2022/04/20 02:43:22;;;;;;;3.73;2.33;;;;;;;;;;5027007;28;20192;-65
2022/04/20 02:45:48;;;;;;;2.57;1.93;;;;;;;;;;5025075;28;20519;-65
2022/04/20 02:48:15;;;;;;;7.40;2.20;;;;;;;;;;5016124;28;20238;-65
2022/04/20 02:50:40;;;;;;;5.60;2.50;;;;;;;;;;5012812;28;20718;-64
2022/04/20 02:53:06;;;;;;;2.83;2.13;;;;;;;;;;5030478;28;20260;-65
2022/04/20 02:55:31;;;;;;;5.50;2.67;;;;;;;;;;5025369;28;20221;-65
2022/04/20 02:57:56;;;;;;;5.30;2.17;;;;;;;;;;5027923;28;20239;-65
2022/04/20 03:00:22;;;;;;;4.20;2.07;;;;;;;;;;5027652;28;20182;-66
2022/04/20 03:02:48;;;;;;;4.57;2.07;;;;;;;;;;5026085;28;20193;-65
2022/04/20 03:05:13;;;;;;;4.53;2.10;;;;;;;;;;5031497;28;20189;-66
2022/04/20 03:07:39;;;;;;;3.60;2.05;;;;;;;;;;5025108;28;20285;-65
2022/04/20 03:10:04;;;;;;;4.10;2.30;;;;;;;;;;5026468;28;20583;-65
2022/04/20 03:12:30;;;;;;;3.60;2.40;;;;;;;;;;5021547;28;20230;-65
2022/04/20 03:14:55;;;;;;;5.60;2.40;;;;;;;;;;5030813;28;20182;-65
2022/04/20 03:17:24;;;;;;;5.13;2.50;;;;;;;;;;5026690;28;20175;-65
2022/04/20 03:19:51;;;;;;;4.70;2.40;;;;;;;;;;5017290;28;20182;-66
2022/04/20 03:22:17;;;;;;;3.90;2.40;;;;;;;;;;5024817;28;20328;-66
2022/04/20 03:24:42;;;;;;;4.33;2.37;;;;;;;;;;5017252;28;20261;-66
2022/04/20 03:27:07;;;;;;;4.20;2.10;;;;;;;;;;5025908;28;20785;-65
2022/04/20 03:29:34;;;;;;;4.50;2.33;;;;;;;;;;5021349;28;20545;-65
2022/04/20 03:32:02;;;;;;;4.03;2.70;;;;;;;;;;5029980;28;20704;-65
2022/04/20 03:34:28;;;;;;;4.97;2.50;;;;;;;;;;5028804;28;20186;-65
2022/04/20 03:36:53;;;;;;;3.10;2.40;;;;;;;;;;5029953;28;20185;-64
2022/04/20 03:39:19;;;;;;;9.00;2.57;;;;;;;;;;5025743;28;20212;-64
2022/04/20 03:41:44;;;;;;;4.27;2.10;;;;;;;;;;5024267;28;20190;-65
2022/04/20 03:44:09;;;;;;;6.40;2.47;;;;;;;;;;5026283;28;20662;-65
2022/04/20 03:46:35;;;;;;;4.97;2.80;;;;;;;;;;5029668;28;20609;-65
2022/04/20 03:49:00;;;;;;;5.03;2.40;;;;;;;;;;5028837;28;20232;-66
2022/04/20 03:51:26;;;;;;;6.13;2.67;;;;;;;;;;5011262;28;20260;-65
2022/04/20 03:53:51;;;;;;;4.80;2.90;;;;;;;;;;5015459;28;20273;-64
2022/04/20 03:56:16;;;;;;;3.93;2.40;;;;;;;;;;5028819;28;20178;-65
2022/04/20 03:58:41;;;;;;;4.73;2.40;;;;;;;;;;5025990;28;20213;-65
2022/04/20 04:01:07;;;;;;;4.97;2.73;;;;;;;;;;5018601;28;20268;-65
2022/04/20 04:03:34;;;;;;;3.90;2.40;;;;;;;;;;5025305;28;20268;-65
2022/04/20 04:06:00;;;;;;;4.70;2.87;;;;;;;;;;5012369;28;20217;-65
2022/04/20 04:08:25;;;;;;;5.17;2.67;;;;;;;;;;5027967;28;20186;-65
2022/04/20 04:10:50;;;;;;;5.90;2.87;;;;;;;;;;5018016;28;20244;-65
2022/04/20 04:13:17;;;;;;;4.20;2.97;;;;;;;;;;5025749;28;20276;-65
2022/04/20 04:15:43;;;;;;;4.77;2.90;;;;;;;;;;5028488;28;20592;-65
2022/04/20 04:18:09;;;;;;;5.70;2.87;;;;;;;;;;5031350;28;20179;-65
2022/04/20 04:20:34;;;;;;;7.60;2.80;;;;;;;;;;5027428;28;20228;-65
2022/04/20 04:23:00;;;;;;;4.03;2.73;;;;;;;;;;5024008;28;20182;-65
2022/04/20 04:25:25;;;;;;;6.70;3.23;;;;;;;;;;5027516;28;20524;-65
2022/04/20 04:27:50;;;;;;;6.17;3.00;;;;;;;;;;5026712;28;20201;-66
2022/04/20 04:30:16;;;;;;;5.57;3.20;;;;;;;;;;5023586;28;20217;-65
2022/04/20 04:32:41;;;;;;;5.97;2.70;;;;;;;;;;5018880;28;20278;-65
2022/04/20 04:35:08;;;;;;;5.20;2.80;;;;;;;;;;5025364;28;20265;-65
2022/04/20 04:37:36;;;;;;;6.60;3.60;;;;;;;;;;5025923;28;20657;-66
2022/04/20 04:40:04;;;;;;;5.60;3.37;;;;;;;;;;5025400;28;20525;-65
2022/04/20 04:42:29;;;;;;;4.60;2.73;;;;;;;;;;5024998;28;20642;-65
2022/04/20 04:48:36;;;;;;;5.77;2.93;;;;;;;;;;5026479;28;20408;-65
2022/04/20 04:50:23;;;;;;;5.57;3.07;;;;;;;;;;5023801;28;20220;-66
2022/04/20 04:52:49;;;;;;;6.53;3.13;;;;;;;;;;5026241;28;20174;-65
2022/04/20 04:55:14;;;;;;;7.37;2.77;;;;;;;;;;5028128;28;20182;-65
2022/04/20 04:57:39;;;;;;;5.33;3.50;;;;;;;;;;5021010;28;20179;-65
2022/04/20 05:00:05;;;;;;;7.17;3.33;;;;;;;;;;5014662;28;22434;-65
2022/04/20 05:02:31;;;;;;;6.47;3.83;;;;;;;;;;5025131;28;20770;-65
2022/04/20 05:04:57;;;;;;;6.33;3.07;;;;;;;;;;5021792;28;20414;-65
2022/04/20 05:07:23;;;;;;;4.53;3.20;;;;;;;;;;5025782;28;20201;-66
2022/04/20 05:09:48;;;;;;;3.97;2.87;;;;;;;;;;5013939;28;20564;-66
2022/04/20 05:12:13;;;;;;;7.80;2.90;;;;;;;;;;5019598;28;20213;-66
2022/04/20 05:14:39;;;;;;;5.83;3.13;;;;;;;;;;5016831;28;20189;-66
2022/04/20 05:17:04;;;;;;;6.17;3.20;;;;;;;;;;5017616;28;20190;-66
2022/04/20 05:19:30;;;;;;;4.87;2.93;;;;;;;;;;5021588;28;20284;-65
2022/04/20 05:21:56;;;;;;;5.87;2.73;;;;;;;;;;5015842;28;20489;-65
2022/04/20 05:24:21;;;;;;;4.97;3.30;;;;;;;;;;5018814;28;20174;-66
2022/04/20 05:26:46;;;;;;;10.17;3.50;;;;;;;;;;5021150;28;20334;-66
2022/04/20 05:29:12;;;;;;;3.97;2.43;;;;;;;;;;5021417;28;20194;-66
2022/04/20 05:31:38;;;;;;;6.60;2.80;;;;;;;;;;5023209;28;20225;-66
2022/04/20 05:34:03;;;;;;;6.77;2.53;;;;;;;;;;5022057;28;20189;-65
2022/04/20 05:41:39;;;;;;;9.27;3.30;;;;;;;;;;5024918;28;20192;-66
2022/04/20 05:41:59;;;;;;;6.07;2.60;;;;;;;;;;5026322;28;20197;-65
2022/04/20 05:44:25;;;;;;;5.37;2.87;;;;;;;;;;5025296;28;20186;-64
2022/04/20 05:46:50;;;;;;;4.37;2.43;;;;;;;;;;5021225;28;20309;-65
2022/04/20 05:49:15;;;;;;;9.77;2.77;;;;;;;;;;5023514;28;20661;-64
2022/04/20 05:51:41;;;;;;;8.20;3.23;;;;;;;;;;5023295;28;20576;-64
2022/04/20 05:54:06;;;;;;;5.90;2.90;;;;;;;;;;5020814;28;20187;-66
2022/04/20 05:56:31;;;;;;;5.50;2.83;;;;;;;;;;5025871;28;20260;-65
2022/04/20 05:58:57;;;;;;;4.00;2.77;;;;;;;;;;5020954;28;20263;-64
2022/04/20 06:01:24;;;;;;;4.00;2.77;;;;;;;;;;5024213;28;20200;-65
2022/04/20 06:03:50;;;;;;;9.20;2.80;;;;;;;;;;5014130;28;20182;-65
2022/04/20 06:06:15;;;;;;;5.10;2.83;;;;;;;;;;5021623;28;20193;-65
2022/04/20 06:08:41;;;;;;;5.38;2.50;;;;;;;;;;5017822;28;20186;-65
2022/04/20 06:11:07;;;;;;;7.37;2.97;;;;;;;;;;5024057;28;20263;-65
2022/04/20 06:13:32;;;;;;;6.53;2.92;;;;;;;;;;5024693;28;20716;-64
2022/04/20 06:15:58;;;;;;;3.88;2.28;;;;;;;;;;5022465;28;20614;-65
2022/04/20 06:18:23;;;;;;;6.43;2.80;;;;;;;;;;5025642;28;20174;-64
2022/04/20 06:20:49;;;;;;;3.80;2.58;;;;;;;;;;5024387;28;20200;-64
2022/04/20 06:23:15;;;;;;;7.40;3.05;;;;;;;;;;5026897;28;20253;-66
2022/04/20 06:25:40;;;;;;;3.92;2.35;;;;;;;;;;5026356;28;20182;-65
2022/04/20 06:28:06;;;;;;;4.95;2.53;;;;;;;;;;5026852;28;20244;-65
2022/04/20 06:30:31;;;;;;;8.68;3.22;;;;;;;;;;5018765;28;20234;-65
2022/04/20 06:32:57;;;;;;;4.65;2.28;;;;;;;;;;5025227;28;20268;-65
2022/04/20 06:35:22;;;;;;;6.38;2.70;;;;;;;;;;5022103;28;20214;-66
2022/04/20 06:37:48;;;;;;;5.10;2.75;;;;;;;;;;5024896;28;20601;-65
2022/04/20 06:40:14;;;;;;;8.65;2.90;;;;;;;;;;5021851;28;20247;-65
2022/04/20 06:42:39;;;;;;;5.47;3.10;;;;;;;;;;5014608;28;20182;-65
2022/04/20 06:45:05;;;;;;;6.55;2.60;;;;;;;;;;5013725;28;20183;-65
2022/04/20 06:47:33;;;;;;;4.50;2.90;;;;;;;;;;5019524;28;20202;-65
2022/04/20 06:49:58;;;;;;;3.40;2.40;;;;;;;;;;5011253;28;20191;-65
2022/04/20 07:00:35;;;;;;;7.35;3.30;;;;;;;;;;5019111;28;20204;-65
2022/04/20 07:03:02;;;;;;;6.13;3.20;;;;;;;;;;5011611;28;20537;-65
2022/04/20 07:05:27;;;;;;;6.93;3.15;;;;;;;;;;5026839;28;20289;-65
2022/04/20 07:07:53;;;;;;;5.40;2.88;;;;;;;;;;5026492;28;20317;-65
2022/04/20 07:10:18;;;;;;;4.55;3.03;;;;;;;;;;5022335;28;20441;-66
2022/04/20 07:12:44;;;;;;;3.78;2.83;;;;;;;;;;5019827;28;20312;-65
2022/04/20 07:15:09;;;;;;;6.28;3.00;;;;;;;;;;5030746;28;20197;-66
2022/04/20 07:17:34;;;;;;;5.22;3.33;;;;;;;;;;5030090;28;20674;-65
2022/04/20 07:20:01;;;;;;;6.05;2.67;;;;;;;;;;5029905;28;20182;-65
2022/04/20 07:22:27;;;;;;;4.43;2.80;;;;;;;;;;5031209;28;20268;-66
2022/04/20 07:24:52;;;;;;;8.13;2.95;;;;;;;;;;5028695;28;20265;-65
2022/04/20 07:27:18;;;;;;;7.35;3.25;;;;;;;;;;5030668;28;20224;-65
2022/04/20 07:29:43;;;;;;;5.30;2.50;;;;;;;;;;5028586;28;20222;-65
2022/04/20 07:32:09;;;;;;;5.65;2.80;;;;;;;;;;5030385;28;20256;-65
2022/04/20 07:34:34;;;;;;;5.45;3.10;;;;;;;;;;5028986;28;20196;-65
2022/04/20 07:36:59;;;;;;;7.88;2.80;;;;;;;;;;5028495;28;20188;-65
2022/04/20 07:39:25;;;;;;;5.28;2.90;;;;;;;;;;5026720;28;20182;-66
2022/04/20 07:41:50;;;;;;;5.63;2.75;;;;;;;;;;5024416;28;20602;-65
2022/04/20 07:44:16;;;;;;;4.60;2.45;;;;;;;;;;5027151;28;20604;-65
2022/04/20 07:46:41;;;;;;;4.32;2.35;;;;;;;;;;5029101;28;20190;-65
2022/04/20 07:51:50;;;;;;;6.55;2.95;;;;;;;;;;5019631;28;20246;-65
2022/04/20 07:54:16;;;;;;;3.88;2.33;;;;;;;;;;5027632;28;20717;-65
2022/04/20 07:56:41;;;;;;;7.60;2.67;;;;;;;;;;5027650;28;20384;-65
2022/04/20 07:59:06;;;;;;;5.55;2.88;;;;;;;;;;5024112;28;20181;-65
2022/04/20 08:01:32;;;;;;;4.15;2.80;;;;;;;;;;5028972;28;20190;-65
2022/04/20 08:03:58;;;;;;;2.88;2.33;;;;;;;;;;5028164;28;20754;-65
2022/04/20 08:06:23;;;;;;;4.75;2.50;;;;;;;;;;5028565;28;20273;-65
2022/04/20 08:08:48;;;;;;;3.03;2.47;;;;;;;;;;5030048;28;20332;-68
2022/04/20 08:11:14;;;;;;;6.43;2.60;;;;;;;;;;5026045;28;20232;-66
2022/04/20 08:16:23;;;;;;;5.53;2.38;;;;;;;;;;5029054;28;20255;-66
2022/04/20 08:18:48;;;;;;;5.78;2.40;;;;;;;;;;5029737;28;20182;-66
2022/04/20 08:21:13;;;;;;;5.07;2.70;;;;;;;;;;5026259;28;20186;-66
2022/04/20 08:23:39;;;;;;;4.50;2.35;;;;;;;;;;5026250;28;20662;-66
2022/04/20 08:26:04;;;;;;;5.03;2.33;;;;;;;;;;5020803;28;20650;-66
2022/04/20 08:28:31;;;;;;;3.53;2.53;;;;;;;;;;5028582;28;20210;-66
2022/04/20 08:30:56;;;;;;;4.07;2.53;;;;;;;;;;5022921;28;20590;-66
2022/04/20 08:33:21;;;;;;;5.13;3.10;;;;;;;;;;5027669;28;20186;-66
2022/04/20 08:35:47;;;;;;;5.30;2.70;;;;;;;;;;5027010;28;20186;-67
2022/04/20 08:38:13;;;;;;;5.82;2.67;;;;;;;;;;5025613;28;20194;-66
2022/04/20 08:40:39;;;;;;;6.30;2.90;;;;;;;;;;5028095;28;20186;-66
2022/04/20 08:43:07;;;;;;;4.75;2.60;;;;;;;;;;5028812;28;20253;-67
2022/04/20 08:45:37;;;;;;;4.72;2.53;;;;;;;;;;5025683;28;20190;-67
2022/04/20 08:48:03;;;;;;;6.97;2.50;;;;;;;;;;5021877;28;20208;-65
2022/04/20 08:50:29;;;;;;;3.20;2.30;;;;;;;;;;5029066;28;20281;-65
2022/04/20 08:52:55;;;;;;;3.85;2.60;;;;;;;;;;5027834;28;20610;-65
2022/04/20 08:55:21;;;;;;;5.65;2.58;;;;;;;;;;5025143;28;20507;-65
2022/04/20 08:57:48;;;;;;;5.53;2.58;;;;;;;;;;5025730;28;20170;-65
2022/04/20 09:00:22;;;;;;;3.70;2.78;;;;;;;;;;5028166;28;20190;-65
2022/04/20 09:02:53;;;;;;;5.32;2.20;;;;;;;;;;5025102;28;20225;-65
2022/04/20 09:05:19;;;;;;;5.25;2.20;;;;;;;;;;5028423;28;20182;-66
2022/04/20 09:07:45;;;;;;;4.82;2.60;;;;;;;;;;5026318;28;20198;-66
2022/04/20 09:10:10;;;;;;;2.65;2.13;;;;;;;;;;5025005;28;20186;-66
2022/04/20 09:12:41;;;;;;;4.20;2.20;;;;;;;;;;5028491;28;20226;-66
2022/04/20 09:15:07;;;;;;;3.92;2.70;;;;;;;;;;5027651;28;20186;-66
2022/04/20 09:17:44;;;;;;;4.18;2.00;;;;;;;;;;5025276;28;20220;-66
2022/04/20 09:20:15;;;;;;;4.55;2.50;;;;;;;;;;5028026;28;20276;-66
2022/04/20 09:22:41;;;;;;;3.22;2.10;;;;;;;;;;5027195;28;20342;-66
2022/04/20 09:25:10;;;;;;;3.88;2.20;;;;;;;;;;5027030;28;20661;-65
2022/04/20 09:27:40;;;;;;;2.50;1.80;;;;;;;;;;5027335;28;20206;-65
2022/04/20 09:30:10;;;;;;;6.45;1.95;;;;;;;;;;5026308;28;20190;-66
2022/04/20 09:32:37;;;;;;;2.78;2.08;;;;;;;;;;5026143;28;20205;-66
2022/04/20 09:35:05;;;;;;;4.20;2.03;;;;;;;;;;5025770;28;20186;-67
2022/04/20 09:37:32;;;;;;;4.35;2.08;;;;;;;;;;5027135;28;20276;-66
2022/04/20 09:39:58;;;;;;;5.43;1.92;;;;;;;;;;5027587;28;20182;-67
2022/04/20 09:42:24;;;;;;;2.85;1.73;;;;;;;;;;5025565;28;20192;-66
2022/04/20 09:44:55;;;;;;;4.22;2.10;;;;;;;;;;5026402;28;20266;-65
2022/04/20 09:50:11;;;;;;;2.83;1.90;;;;;;;;;;5024755;28;20193;-66
2022/04/20 09:52:39;;;;;;;3.47;1.50;;;;;;;;;;5025354;28;20186;-66
2022/04/20 09:55:06;;;;;;;4.82;1.65;;;;;;;;;;5024183;28;20263;-66
2022/04/20 09:57:32;;;;;;;4.55;1.45;;;;;;;;;;5028208;28;20174;-67
2022/04/20 10:00:02;;;;;;;5.15;2.10;;;;;;;;;;5026959;28;20191;-66
2022/04/20 10:02:29;;;;;;;4.05;2.03;;;;;;;;;;5026272;28;20186;-67
2022/04/20 10:04:56;;;;;;;3.60;1.90;;;;;;;;;;5026735;28;20182;-65
2022/04/20 10:07:21;;;;;;;2.50;1.67;;;;;;;;;;5026928;28;20577;-66
2022/04/20 10:09:47;;;;;;;4.50;2.08;;;;;;;;;;5026155;28;20184;-66
2022/04/20 10:12:17;;;;;;;3.65;1.60;;;;;;;;;;5025632;28;20248;-66
2022/04/20 10:17:31;;;;;;;1.65;1.15;;;;;;;;;;5023480;28;20573;-66
2022/04/20 10:19:57;;;;;;;4.43;1.48;;;;;;;;;;5024451;28;20182;-66
2022/04/20 10:22:26;;;;;;;4.03;1.77;;;;;;;;;;5026289;28;20478;-66
2022/04/20 10:24:55;;;;;;;1.80;1.50;;;;;;;;;;5025156;28;20185;-66
2022/04/20 10:27:59;;;;;;;3.67;1.50;;;;;;;;;;5022088;28;20426;-66
2022/04/20 10:30:45;;;;;;;2.38;1.05;;;;;;;;;;5016488;28;20344;-66
2022/04/20 10:33:21;;;;;;;2.08;1.50;;;;;;;;;;5024308;28;20548;-66
2022/04/20 10:36:01;;;;;;;4.32;1.60;;;;;;;;;;5025265;28;20189;-65
2022/04/20 10:38:30;;;;;;;3.08;1.42;;;;;;;;;;5025699;28;20219;-65
2022/04/20 10:41:17;;;;;;;2.78;1.55;;;;;;;;;;5024121;28;20605;-65
2022/04/20 10:43:43;;;;;;;3.95;1.50;;;;;;;;;;5020136;28;20182;-65
2022/04/20 10:46:17;;;;;;;1.73;1.35;;;;;;;;;;5025289;28;20231;-66
2022/04/20 10:48:58;;;;;;;2.20;1.17;;;;;;;;;;5026874;28;20224;-66
2022/04/20 10:51:30;;;;;;;2.25;1.15;;;;;;;;;;5027564;28;20196;-66
2022/04/20 10:54:15;;;;;;;3.17;1.98;;;;;;;;;;5029367;28;20257;-66
2022/04/20 10:56:47;;;;;;;2.65;1.60;;;;;;;;;;5028029;28;20273;-66
2022/04/20 10:59:13;;;;;;;4.20;1.55;;;;;;;;;;5028261;28;20261;-65
2022/04/20 11:02:03;;;;;;;3.75;1.55;;;;;;;;;;5029979;28;20613;-65
2022/04/20 11:04:37;;;;;;;3.45;1.67;;;;;;;;;;5024104;28;20182;-66
2022/04/20 11:07:03;;;;;;;2.97;1.58;;;;;;;;;;5022926;28;20206;-65
2022/04/20 11:09:48;;;;;;;3.80;1.77;;;;;;;;;;5029434;28;20625;-66
2022/04/20 11:21:05;;;;;;;3.08;1.80;;;;;;;;;;5027980;28;20277;-65
2022/04/20 11:23:52;;;;;;;3.45;2.20;;;;;;;;;;5026091;28;20564;-65
2022/04/20 11:26:22;;;;;;;2.17;1.15;;;;;;;;;;5018144;28;20596;-65
2022/04/20 11:28:48;;;;;;;1.92;1.30;;;;;;;;;;5016266;28;20186;-65
2022/04/20 11:31:13;;;;;;;1.77;1.30;;;;;;;;;;5020964;28;20565;-65
2022/04/20 11:33:39;;;;;;;3.60;1.58;;;;;;;;;;5026970;28;20185;-66
2022/04/20 11:36:05;;;;;;;3.63;2.05;;;;;;;;;;5029326;28;20185;-66
2022/04/20 11:38:44;;;;;;;2.35;1.98;;;;;;;;;;5028165;28;20228;-65
2022/04/20 11:41:11;;;;;;;5.03;2.05;;;;;;;;;;5027018;28;20558;-65
2022/04/20 11:43:40;;;;;;;2.75;1.58;;;;;;;;;;5025750;28;20670;-66
2022/04/20 11:46:07;;;;;;;1.55;1.23;;;;;;;;;;5021414;28;20188;-66
2022/04/20 11:48:35;;;;;;;2.30;1.58;;;;;;;;;;5024398;28;20297;-66
2022/04/20 11:51:02;;;;;;;3.22;2.05;;;;;;;;;;5024230;28;20422;-66
2022/04/20 11:53:38;;;;;;;1.63;1.38;;;;;;;;;;5018270;28;20186;-66
2022/04/20 11:56:05;;;;;;;5.05;1.70;;;;;;;;;;5019154;28;20193;-66
2022/04/20 11:58:31;;;;;;;2.20;1.50;;;;;;;;;;5013963;28;20182;-66
2022/04/20 12:01:05;;;;;;;3.53;1.83;;;;;;;;;;5021147;28;20186;-66
2022/04/20 12:03:31;;;;;;;4.70;2.00;;;;;;;;;;5014729;28;20197;-66
2022/04/20 12:06:04;;;;;;;4.47;1.67;;;;;;;;;;5021244;28;20328;-66
2022/04/20 12:08:31;;;;;;;1.55;1.42;;;;;;;;;;5027418;28;20229;-66
2022/04/20 12:10:57;;;;;;;2.03;1.58;;;;;;;;;;5026273;28;20550;-66
2022/04/20 12:13:28;;;;;;;2.17;1.42;;;;;;;;;;5024810;28;20226;-65
2022/04/20 12:16:05;;;;;;;2.72;1.65;;;;;;;;;;5012600;28;20213;-66
2022/04/20 12:18:36;;;;;;;4.00;1.55;;;;;;;;;;5022564;28;20189;-66
2022/04/20 12:21:25;;;;;;;3.05;1.67;;;;;;;;;;5020900;28;20182;-66
2022/04/20 12:23:50;;;;;;;4.18;1.60;;;;;;;;;;5021182;28;20205;-65
2022/04/20 12:26:15;;;;;;;2.22;1.60;;;;;;;;;;5021467;28;20593;-65
2022/04/20 12:28:44;;;;;;;2.17;1.52;;;;;;;;;;5021466;28;20190;-65
2022/04/20 12:31:12;;;;;;;2.20;1.67;;;;;;;;;;5021649;28;20665;-65
2022/04/20 12:33:38;;;;;;;2.47;1.88;;;;;;;;;;5019867;28;20648;-65
2022/04/20 12:36:08;;;;;;;3.10;2.00;;;;;;;;;;5023558;28;20669;-65
2022/04/20 12:38:47;;;;;;;2.35;2.10;;;;;;;;;;5015407;28;20191;-65
2022/04/20 12:41:38;;;;;;;4.10;2.10;;;;;;;;;;5011700;28;20269;-65
2022/04/20 12:44:37;;;;;;;2.92;1.90;;;;;;;;;;5031703;28;20519;-65
2022/04/20 12:47:06;;;;;;;2.65;1.70;;;;;;;;;;5021347;28;20218;-65
2022/04/20 12:49:31;;;;;;;2.85;1.67;;;;;;;;;;5026556;28;20201;-65
2022/04/20 12:52:14;;;;;;;5.03;1.90;;;;;;;;;;5011201;28;20602;-65
2022/04/20 12:54:40;;;;;;;2.97;1.80;;;;;;;;;;5027629;28;20578;-65
2022/04/20 13:03:15;;;;;;;5.68;1.95;;;;;;;;;;5019363;28;20298;-66
2022/04/20 13:05:42;;;;;;;2.53;1.75;;;;;;;;;;5016373;28;20197;-66
2022/04/20 13:08:09;;;;;;;5.53;1.60;;;;;;;;;;5021659;28;20328;-66
2022/04/20 13:10:40;;;;;;;4.20;1.70;;;;;;;;;;5025433;28;20221;-66
2022/04/20 13:13:07;;;;;;;2.38;2.03;;;;;;;;;;5027073;28;20226;-66
2022/04/20 13:15:32;;;;;;;4.97;1.75;;;;;;;;;;5020664;28;20200;-66
2022/04/20 13:17:58;;;;;;;3.80;2.53;;;;;;;;;;5023093;28;20190;-65
2022/04/20 13:20:25;;;;;;;4.60;2.63;;;;;;;;;;5024987;28;20185;-66
2022/04/20 13:22:51;;;;;;;5.15;2.28;;;;;;;;;;5023623;28;20202;-65
2022/04/20 13:28:22;;;;;;;6.68;2.42;;;;;;;;;;5019650;28;20214;-66
2022/04/20 13:30:49;;;;;;;4.90;2.15;;;;;;;;;;5020739;28;20244;-66
2022/04/20 13:33:15;;;;;;;2.45;2.00;;;;;;;;;;5025255;28;20610;-66
2022/04/20 13:35:42;;;;;;;4.03;2.10;;;;;;;;;;5027089;28;20188;-66
2022/04/20 13:38:10;;;;;;;4.18;2.47;;;;;;;;;;5020690;28;20546;-66
2022/04/20 13:40:38;;;;;;;3.10;2.38;;;;;;;;;;5022083;28;20212;-66
2022/04/20 13:43:04;;;;;;;6.57;2.58;;;;;;;;;;5025770;28;20197;-66
2022/04/20 13:45:29;;;;;;;3.85;2.47;;;;;;;;;;5019276;28;20187;-65
2022/04/20 13:47:55;;;;;;;7.15;2.58;;;;;;;;;;5020030;28;20268;-66
2022/04/20 13:50:20;;;;;;;4.65;2.88;;;;;;;;;;5019478;28;20538;-67
2022/04/20 13:52:46;;;;;;;2.70;1.95;;;;;;;;;;5020604;28;20515;-66
2022/04/20 13:55:12;;;;;;;2.75;2.15;;;;;;;;;;5025437;28;20182;-66
2022/04/20 13:57:38;;;;;;;4.45;2.50;;;;;;;;;;5024112;28;20192;-66
2022/04/20 14:00:08;;;;;;;2.78;2.10;;;;;;;;;;5025633;28;20668;-66
2022/04/20 14:02:34;;;;;;;4.07;2.20;;;;;;;;;;5022392;28;20233;-66
2022/04/20 14:04:59;;;;;;;3.45;2.13;;;;;;;;;;5027794;28;20182;-66
2022/04/20 14:07:25;;;;;;;2.42;2.22;;;;;;;;;;5022273;28;20617;-65
2022/04/20 14:09:50;;;;;;;8.13;2.22;;;;;;;;;;5025474;28;20178;-66
2022/04/20 14:12:17;;;;;;;4.20;2.15;;;;;;;;;;5024768;28;20238;-66
2022/04/20 14:14:42;;;;;;;2.75;2.05;;;;;;;;;;5024412;28;20281;-66
2022/04/20 14:17:08;;;;;;;2.92;2.35;;;;;;;;;;5023718;28;20306;-66
2022/04/20 14:19:33;;;;;;;3.13;2.08;;;;;;;;;;5022695;28;20190;-66
2022/04/20 14:21:59;;;;;;;3.78;2.30;;;;;;;;;;5021378;28;20723;-66
2022/04/20 14:24:25;;;;;;;2.88;2.30;;;;;;;;;;5026919;28;20185;-66
2022/04/20 14:32:21;;;;;;;2.35;2.13;;;;;;;;;;5025408;28;20213;-66
2022/04/20 14:34:48;;;;;;;4.30;2.47;;;;;;;;;;5023396;28;20554;-66
2022/04/20 14:37:16;;;;;;;4.32;2.38;;;;;;;;;;5023487;28;20665;-66
2022/04/20 14:39:42;;;;;;;4.18;2.20;;;;;;;;;;5026328;28;20181;-65
2022/04/20 14:42:08;;;;;;;4.85;2.33;;;;;;;;;;5020126;28;20202;-65
2022/04/20 14:44:35;;;;;;;2.25;2.00;;;;;;;;;;5024640;28;20637;-66
2022/04/20 14:47:02;;;;;;;3.80;2.30;;;;;;;;;;5022292;28;20661;-66
2022/04/20 14:49:28;;;;;;;5.65;2.25;;;;;;;;;;5020082;28;20232;-66
2022/04/20 14:51:53;;;;;;;2.55;2.20;;;;;;;;;;5023171;28;20202;-66
2022/04/20 14:54:19;;;;;;;3.22;2.30;;;;;;;;;;5008383;28;20205;-65
2022/04/20 14:56:45;;;;;;;3.85;2.38;;;;;;;;;;5025958;28;20178;-66
2022/04/20 14:59:10;;;;;;;3.58;2.30;;;;;;;;;;5021598;28;20174;-65
2022/04/20 15:01:36;;;;;;;2.45;1.95;;;;;;;;;;5017726;28;20232;-66
2022/04/20 15:04:02;;;;;;;4.60;2.40;;;;;;;;;;5026295;28;20273;-66
2022/04/20 15:06:29;;;;;;;4.13;2.42;;;;;;;;;;5022679;28;20186;-66
2022/04/20 15:08:55;;;;;;;2.80;2.28;;;;;;;;;;5025800;28;20240;-66
2022/04/20 15:11:21;;;;;;;3.58;2.17;;;;;;;;;;5024957;28;20688;-66
2022/04/20 15:13:48;;;;;;;3.63;2.05;;;;;;;;;;5026536;28;20229;-66
2022/04/20 15:16:14;;;;;;;3.72;2.22;;;;;;;;;;5023568;28;20232;-66
2022/04/20 15:18:39;;;;;;;3.72;2.45;;;;;;;;;;5019413;28;20182;-66
2022/04/20 15:21:05;;;;;;;3.80;2.22;;;;;;;;;;5020327;28;20277;-65
2022/04/20 15:23:31;;;;;;;2.38;2.17;;;;;;;;;;5021925;28;20218;-66
2022/04/20 15:25:56;;;;;;;4.25;2.65;;;;;;;;;;5015393;28;20227;-66
2022/04/20 15:28:22;;;;;;;2.95;2.15;;;;;;;;;;5015772;28;20210;-66
2022/04/20 15:30:47;;;;;;;5.32;1.80;;;;;;;;;;5022741;28;20194;-66
2022/04/20 15:33:16;;;;;;;3.95;1.60;;;;;;;;;;5020755;28;20197;-66